createdAt,value
2024-01-04T00:01:19.319Z,1.60
2024-01-04T00:03:47.522Z,1.60
2024-01-04T00:06:16.203Z,1.33
2024-01-04T00:08:44.166Z,1.70
2024-01-04T00:11:12.370Z,1.30
2024-01-04T00:13:41.703Z,1.50
2024-01-04T00:16:12.218Z,1.60
2024-01-04T00:18:41.052Z,1.30
2024-01-04T00:21:09.082Z,1.40
2024-01-04T00:23:37.181Z,1.50
2024-01-04T00:26:05.340Z,1.63
2024-01-04T00:28:33.327Z,1.40
2024-01-04T00:31:02.683Z,1.70
2024-01-04T00:33:30.844Z,1.30
2024-01-04T00:35:58.861Z,1.40
2024-01-04T00:38:27.144Z,1.50
2024-01-04T00:40:55.271Z,1.30
2024-01-04T00:43:23.245Z,1.30
2024-01-04T00:45:51.511Z,1.70
2024-01-04T00:48:21.960Z,1.30
2024-01-04T00:50:50.422Z,1.60
2024-01-04T00:53:18.416Z,1.30
2024-01-04T00:55:46.809Z,1.40
2024-01-04T00:58:14.731Z,1.60
2024-01-04T01:00:44.633Z,1.50
2024-01-04T01:03:12.838Z,1.40
2024-01-04T01:05:42.319Z,1.40
2024-01-04T01:08:11.242Z,1.50
2024-01-04T01:10:39.236Z,1.30
2024-01-04T01:13:07.515Z,1.73
2024-01-04T01:15:35.449Z,1.70
2024-01-04T01:18:03.486Z,1.50
2024-01-04T01:20:31.551Z,1.80
2024-01-04T01:23:01.159Z,1.40
2024-01-04T01:25:29.564Z,1.30
2024-01-04T01:27:57.981Z,1.40
2024-01-04T01:30:25.989Z,1.40
2024-01-04T01:32:54.438Z,1.70
2024-01-04T01:35:22.892Z,1.70
2024-01-04T01:37:50.966Z,1.40
2024-01-04T01:40:20.341Z,1.40
2024-01-04T01:42:49.169Z,1.70
2024-01-04T01:45:17.670Z,1.70
2024-01-04T01:47:49.101Z,1.80
2024-01-04T01:50:19.405Z,1.70
2024-01-04T01:52:49.230Z,1.40
2024-01-04T01:55:19.107Z,1.70
2024-01-04T01:57:48.933Z,1.50
2024-01-04T02:00:17.452Z,1.43
2024-01-04T02:02:47.416Z,1.40
2024-01-04T02:05:15.452Z,1.80
2024-01-04T02:07:45.640Z,1.50
2024-01-04T02:10:13.902Z,1.70
2024-01-04T02:12:42.074Z,1.80
2024-01-04T02:15:11.822Z,1.47
2024-01-04T02:17:40.809Z,1.80
2024-01-04T02:20:09.685Z,1.70
2024-01-04T02:22:38.251Z,1.83
2024-01-04T02:25:08.105Z,1.80
2024-01-04T02:27:35.930Z,1.80
2024-01-04T02:30:04.173Z,1.70
2024-01-04T02:32:32.517Z,1.90
2024-01-04T02:35:00.863Z,1.70
2024-01-04T02:37:29.105Z,1.80
2024-01-04T02:39:56.997Z,1.80
2024-01-04T02:42:26.210Z,1.80
2024-01-04T02:44:54.432Z,1.60
2024-01-04T02:47:22.355Z,1.80
2024-01-04T02:49:50.424Z,1.67
2024-01-04T02:52:18.423Z,1.53
2024-01-04T02:54:46.399Z,1.80
2024-01-04T02:57:14.444Z,1.70
2024-01-04T02:59:43.750Z,1.60
2024-01-04T03:02:11.720Z,1.80
2024-01-04T03:04:43.361Z,1.50
2024-01-04T03:07:11.507Z,1.40
2024-01-04T03:09:39.667Z,2.00
2024-01-04T03:12:07.977Z,1.87
2024-01-04T03:14:36.010Z,1.80
2024-01-04T03:17:05.500Z,1.70
2024-01-04T03:19:33.465Z,1.50
2024-01-04T03:22:01.352Z,1.80
2024-01-04T03:24:29.369Z,1.60
2024-01-04T03:26:57.302Z,1.80
2024-01-04T03:29:25.178Z,1.83
2024-01-04T03:31:53.174Z,1.40
2024-01-04T03:34:22.542Z,1.50
2024-01-04T03:36:50.565Z,1.50
2024-01-04T03:39:18.515Z,1.70
2024-01-04T03:41:46.654Z,1.80
2024-01-04T03:44:14.879Z,1.30
2024-01-04T03:46:43.044Z,1.40
2024-01-04T03:49:12.529Z,1.80
2024-01-04T03:51:42.074Z,1.70
2024-01-04T03:54:10.249Z,1.70
2024-01-04T03:56:38.211Z,1.70
2024-01-04T03:59:06.056Z,1.70
2024-01-04T04:01:34.005Z,1.70
2024-01-04T04:04:02.123Z,1.70
2024-01-04T04:06:30.752Z,1.70
2024-01-04T04:09:00.074Z,1.60
2024-01-04T04:11:27.969Z,1.70
2024-01-04T04:13:56.153Z,1.47
2024-01-04T04:16:24.499Z,1.50
2024-01-04T04:18:52.551Z,1.70
2024-01-04T04:21:21.464Z,1.70
2024-01-04T04:23:51.192Z,1.50
2024-01-04T04:26:21.916Z,1.50
2024-01-04T04:28:50.100Z,1.40
2024-01-04T04:31:18.977Z,1.50
2024-01-04T04:33:48.421Z,1.70
2024-01-04T04:36:16.862Z,1.50
2024-01-04T04:38:44.990Z,1.70
2024-01-04T04:41:12.885Z,1.40
2024-01-04T04:43:42.279Z,1.70
2024-01-04T04:46:12.466Z,1.67
2024-01-04T04:48:40.691Z,1.60
2024-01-04T04:51:08.965Z,1.70
2024-01-04T04:53:36.906Z,1.50
2024-01-04T04:56:05.333Z,1.40
2024-01-04T04:58:33.242Z,1.70
2024-01-04T05:01:02.944Z,1.40
2024-01-04T05:03:31.097Z,1.70
2024-01-04T05:05:59.189Z,1.70
2024-01-04T05:08:27.094Z,1.80
2024-01-04T05:10:55.226Z,1.70
2024-01-04T05:13:23.099Z,1.70
2024-01-04T05:15:50.986Z,1.77
2024-01-04T05:18:20.405Z,1.53
2024-01-04T05:20:48.469Z,1.80
2024-01-04T05:23:16.432Z,1.60
2024-01-04T05:25:44.296Z,1.70
2024-01-04T05:28:12.270Z,1.70
2024-01-04T05:30:40.428Z,1.70
2024-01-04T05:33:09.567Z,1.70
2024-01-04T05:35:39.680Z,1.73
2024-01-04T05:38:07.620Z,1.80
2024-01-04T05:40:35.542Z,1.70
2024-01-04T05:43:03.429Z,1.70
2024-01-04T05:45:31.324Z,1.70
2024-01-04T05:47:59.288Z,1.80
2024-01-04T05:50:27.364Z,1.70
2024-01-04T05:52:56.671Z,1.70
2024-01-04T05:55:24.681Z,1.50
2024-01-04T05:57:52.570Z,1.50
2024-01-04T06:00:20.726Z,1.70
2024-01-04T06:02:49.178Z,1.70
2024-01-04T06:05:17.249Z,1.67
2024-01-04T06:07:45.166Z,1.70
2024-01-04T06:10:14.605Z,1.60
2024-01-04T06:12:44.740Z,1.80
2024-01-04T06:15:12.807Z,1.80
2024-01-04T06:17:40.960Z,1.60
2024-01-04T06:20:09.952Z,1.57
2024-01-04T06:22:38.255Z,1.80
2024-01-04T06:25:07.142Z,1.70
2024-01-04T06:27:37.002Z,1.90
2024-01-04T06:30:06.605Z,1.70
2024-01-04T06:32:34.859Z,1.70
2024-01-04T06:35:02.805Z,1.50
2024-01-04T06:37:30.743Z,1.70
2024-01-04T06:39:58.593Z,1.70
2024-01-04T06:42:26.465Z,1.50
2024-01-04T06:44:55.979Z,1.70
2024-01-04T06:47:23.970Z,1.80
2024-01-04T06:49:55.825Z,1.77
2024-01-04T06:52:26.001Z,1.80
2024-01-04T06:54:54.012Z,1.80
2024-01-04T06:57:22.045Z,1.90
2024-01-04T06:59:50.072Z,1.90
2024-01-04T07:02:19.431Z,1.60
2024-01-04T07:04:47.692Z,1.50
2024-01-04T07:07:15.709Z,1.80
2024-01-04T07:09:43.610Z,1.70
2024-01-04T07:12:11.928Z,1.70
2024-01-04T07:14:41.575Z,1.70
2024-01-04T07:17:10.179Z,1.60
2024-01-04T07:19:43.099Z,1.80
2024-01-04T07:22:11.623Z,1.40
2024-01-04T07:24:40.006Z,1.90
2024-01-04T07:27:08.753Z,1.80
2024-01-04T07:29:37.455Z,1.70
2024-01-04T07:32:06.043Z,1.70
2024-01-04T07:34:38.929Z,1.50
2024-01-04T07:37:08.287Z,1.50
2024-01-04T07:39:36.197Z,1.83
2024-01-04T07:42:04.284Z,1.80
2024-01-04T07:44:33.312Z,1.70
2024-01-04T07:47:01.284Z,1.50
2024-01-04T07:49:29.483Z,1.90
2024-01-04T07:51:57.556Z,1.50
2024-01-04T07:54:31.704Z,1.50
2024-01-04T07:57:04.877Z,1.50
2024-01-04T07:59:32.795Z,1.70
2024-01-04T08:02:01.372Z,1.80
2024-01-04T08:04:29.342Z,1.80
2024-01-04T08:06:57.429Z,1.43
2024-01-04T08:09:27.108Z,1.80
2024-01-04T08:11:55.288Z,1.50
2024-01-04T08:14:23.240Z,1.80
2024-01-04T08:16:51.448Z,1.70
2024-01-04T08:19:19.847Z,1.40
2024-01-04T08:21:47.864Z,1.80
2024-01-04T08:24:18.203Z,1.40
2024-01-04T08:26:48.148Z,1.40
2024-01-04T08:29:16.212Z,1.70
2024-01-04T08:31:44.696Z,1.77
2024-01-04T08:34:12.839Z,1.40
2024-01-04T08:36:41.457Z,1.70
2024-01-04T08:39:11.670Z,1.50
2024-01-04T08:41:40.065Z,1.80
2024-01-04T08:44:10.580Z,1.60
2024-01-04T08:46:39.380Z,1.90
2024-01-04T08:49:09.267Z,1.40
2024-01-04T08:51:37.384Z,1.60
2024-01-04T08:54:06.133Z,1.40
2024-01-04T08:56:34.634Z,1.70
2024-01-04T08:59:03.586Z,1.40
2024-01-04T09:01:33.026Z,1.70
2024-01-04T09:04:01.140Z,1.50
2024-01-04T09:06:30.159Z,1.40
2024-01-04T09:08:58.101Z,1.77
2024-01-04T09:11:26.979Z,1.40
2024-01-04T09:13:54.987Z,1.80
2024-01-04T09:16:24.043Z,1.47
2024-01-04T09:18:53.695Z,1.60
2024-01-04T09:21:21.902Z,1.50
2024-01-04T09:23:51.991Z,1.70
2024-01-04T09:26:19.888Z,1.70
2024-01-04T09:28:48.572Z,1.70
2024-01-04T09:31:16.687Z,1.30
2024-01-04T09:33:44.922Z,1.40
2024-01-04T09:36:14.358Z,1.70
2024-01-04T09:38:42.415Z,1.67
2024-01-04T09:41:19.159Z,1.50
2024-01-04T09:43:47.843Z,1.80
2024-01-04T09:46:20.118Z,1.70
2024-01-04T09:48:56.584Z,1.70
2024-01-04T09:51:27.054Z,1.50
2024-01-04T09:53:55.680Z,1.40
2024-01-04T09:56:24.987Z,1.40
2024-01-04T09:58:53.395Z,1.30
2024-01-04T10:01:23.289Z,1.40
2024-01-04T10:03:51.316Z,1.70
2024-01-04T10:06:29.578Z,1.70
2024-01-04T10:09:05.400Z,1.70
2024-01-04T10:11:39.243Z,1.70
2024-01-04T10:14:08.502Z,1.40
2024-01-04T10:16:37.290Z,1.70
2024-01-04T10:19:06.697Z,1.60
2024-01-04T10:21:36.087Z,1.60
2024-01-04T10:24:04.710Z,1.70
2024-01-04T10:26:34.029Z,1.40
2024-01-04T10:29:02.250Z,1.70
2024-01-04T10:31:30.487Z,1.70
2024-01-04T10:33:59.058Z,1.40
2024-01-04T10:36:29.583Z,1.63
2024-01-04T10:39:02.066Z,1.40
2024-01-04T10:41:30.452Z,1.40
2024-01-04T10:44:06.276Z,1.70
2024-01-04T10:46:36.205Z,1.40
2024-01-04T10:49:05.226Z,1.40
2024-01-04T10:51:34.659Z,1.50
2024-01-04T10:54:04.055Z,1.60
2024-01-04T10:56:33.997Z,1.30
2024-01-04T10:59:03.522Z,1.30
2024-01-04T11:01:31.808Z,1.40
2024-01-04T11:04:01.273Z,1.70
2024-01-04T11:06:35.044Z,1.60
2024-01-04T11:09:04.495Z,1.70
2024-01-04T11:11:33.230Z,1.70
2024-01-04T11:14:01.140Z,1.60
2024-01-04T11:16:45.392Z,1.70
2024-01-04T11:19:19.950Z,1.70
2024-01-04T11:22:03.336Z,1.60
2024-01-04T11:24:44.820Z,1.40
2024-01-04T11:27:18.209Z,1.60
2024-01-04T11:29:46.927Z,1.30
2024-01-04T11:32:14.915Z,1.30
2024-01-04T11:34:43.271Z,1.40
2024-01-04T11:37:18.503Z,1.60
2024-01-04T11:40:05.080Z,1.60
2024-01-04T11:42:34.372Z,1.30
2024-01-04T11:45:05.570Z,1.20
2024-01-04T11:47:37.395Z,1.60
2024-01-04T11:50:17.476Z,1.60
2024-01-04T11:52:48.157Z,1.40
2024-01-04T11:55:26.833Z,1.60
2024-01-04T11:58:05.391Z,1.50
2024-01-04T12:00:34.275Z,1.70
2024-01-04T12:03:03.028Z,1.60
2024-01-04T12:05:30.965Z,1.60
2024-01-04T12:07:58.938Z,1.60
2024-01-04T12:10:28.151Z,1.60
2024-01-04T12:12:56.058Z,1.60
2024-01-04T12:15:24.156Z,1.60
2024-01-04T12:17:52.664Z,1.60
2024-01-04T12:20:20.771Z,1.30
2024-01-04T12:22:49.669Z,1.30
2024-01-04T12:25:19.809Z,1.30
2024-01-04T12:27:51.049Z,1.20
2024-01-04T12:30:19.550Z,1.20
2024-01-04T12:32:47.786Z,1.50
2024-01-04T12:35:19.084Z,1.50
2024-01-04T12:37:47.842Z,1.50
2024-01-04T12:40:16.123Z,1.43
2024-01-04T12:42:45.488Z,1.40
2024-01-04T12:45:14.802Z,1.20
2024-01-04T12:47:43.289Z,1.40
2024-01-04T12:50:12.965Z,1.20
2024-01-04T12:52:42.012Z,1.40
2024-01-04T12:55:10.967Z,1.40
2024-01-04T12:57:38.986Z,1.10
2024-01-04T13:00:08.493Z,1.20
2024-01-04T13:02:37.742Z,1.30
2024-01-04T13:05:06.059Z,1.40
2024-01-04T13:07:35.661Z,1.30
2024-01-04T13:10:04.660Z,1.40
2024-01-04T13:12:32.745Z,1.60
2024-01-04T13:15:00.838Z,1.60
2024-01-04T13:17:32.139Z,1.40
2024-01-04T13:20:02.160Z,1.50
2024-01-04T13:22:30.335Z,1.30
2024-01-04T13:24:59.208Z,1.20
2024-01-04T13:27:29.995Z,1.20
2024-01-04T13:29:58.810Z,1.50
2024-01-04T13:32:27.299Z,1.50
2024-01-04T13:34:55.388Z,1.50
2024-01-04T13:37:24.898Z,1.40
2024-01-04T13:39:53.419Z,1.20
2024-01-04T13:42:21.487Z,1.40
2024-01-04T13:44:49.488Z,1.50
2024-01-04T13:47:18.463Z,1.50
2024-01-04T13:49:46.477Z,1.40
2024-01-04T13:52:14.439Z,1.60
2024-01-04T13:54:45.041Z,1.40
2024-01-04T13:57:13.045Z,1.70
2024-01-04T13:59:42.382Z,1.60
2024-01-04T14:02:10.383Z,1.60
2024-01-04T14:04:38.357Z,1.60
2024-01-04T14:07:06.270Z,1.50
2024-01-04T14:09:35.093Z,1.50
2024-01-04T14:12:06.380Z,1.30
2024-01-04T14:14:34.564Z,1.60
2024-01-04T14:17:02.630Z,1.30
2024-01-04T14:19:30.590Z,1.63
2024-01-04T14:21:58.486Z,1.60
2024-01-04T14:24:26.547Z,1.40
2024-01-04T14:26:54.483Z,1.60
2024-01-04T14:29:23.770Z,1.20
2024-01-04T14:31:52.796Z,1.30
2024-01-04T14:34:20.816Z,1.60
2024-01-04T14:36:49.148Z,1.30
2024-01-04T14:39:22.635Z,1.40
2024-01-04T14:41:51.574Z,1.70
2024-01-04T14:44:19.507Z,1.30
2024-01-04T14:46:48.921Z,1.50
2024-01-04T14:49:16.919Z,1.50
2024-01-04T14:51:44.926Z,1.20
2024-01-04T14:54:12.884Z,1.30
2024-01-04T14:56:40.910Z,1.37
2024-01-04T14:59:09.254Z,1.60
2024-01-04T15:01:37.579Z,1.40
2024-01-04T15:04:07.159Z,1.30
2024-01-04T15:06:35.211Z,1.30
2024-01-04T15:09:03.970Z,1.60
2024-01-04T15:11:32.702Z,1.30
2024-01-04T15:14:02.019Z,1.50
2024-01-04T15:16:30.210Z,1.70
2024-01-04T15:18:58.420Z,1.30
2024-01-04T15:21:27.819Z,1.47
2024-01-04T15:23:55.875Z,1.30
2024-01-04T15:26:23.759Z,1.30
2024-01-04T15:28:51.772Z,1.70
2024-01-04T15:31:20.209Z,1.50
2024-01-04T15:33:50.316Z,1.70
2024-01-04T15:36:19.659Z,1.50
2024-01-04T15:38:50.084Z,1.60
2024-01-04T15:41:19.761Z,1.23
2024-01-04T15:43:48.831Z,1.47
2024-01-04T15:46:17.184Z,1.70
2024-01-04T15:48:45.201Z,1.33
2024-01-04T15:51:14.912Z,1.40
2024-01-04T15:53:43.995Z,1.70
2024-01-04T15:56:17.260Z,1.30
2024-01-04T15:58:45.203Z,1.40
2024-01-04T16:01:13.585Z,1.60
2024-01-04T16:03:42.325Z,1.70
2024-01-04T16:06:10.697Z,1.70
2024-01-04T16:08:38.749Z,1.40
2024-01-04T16:11:07.003Z,1.70
2024-01-04T16:13:36.340Z,1.60
2024-01-04T16:16:04.785Z,1.60
2024-01-04T16:18:33.771Z,1.40
2024-01-04T16:21:02.188Z,1.80
2024-01-04T16:23:30.698Z,1.60
2024-01-04T16:25:58.789Z,1.60
2024-01-04T16:28:26.758Z,1.40
2024-01-04T16:30:56.560Z,1.83
2024-01-04T16:33:25.094Z,1.40
2024-01-04T16:35:53.281Z,1.70
2024-01-04T16:38:21.267Z,1.70
2024-01-04T16:40:49.130Z,1.40
2024-01-04T16:43:17.022Z,1.40
2024-01-04T16:45:45.100Z,1.40
2024-01-04T16:48:14.627Z,1.60
2024-01-04T16:50:43.134Z,1.40
2024-01-04T16:53:11.202Z,1.60
2024-01-04T16:55:39.204Z,1.70
2024-01-04T16:58:10.733Z,1.80
2024-01-04T17:00:38.808Z,1.70
2024-01-04T17:03:06.969Z,1.87
2024-01-04T17:05:37.980Z,1.50
2024-01-04T17:08:07.460Z,1.40
2024-01-04T17:10:39.750Z,1.47
2024-01-04T17:13:08.434Z,1.70
2024-01-04T17:15:36.636Z,1.70
2024-01-04T17:18:05.149Z,1.70
2024-01-04T17:20:33.158Z,1.40
2024-01-04T17:23:03.192Z,1.80
2024-01-04T17:25:31.188Z,1.70
2024-01-04T17:27:59.057Z,1.70
2024-01-04T17:30:27.519Z,1.80
2024-01-04T17:32:55.650Z,1.70
2024-01-04T17:35:23.712Z,1.50
2024-01-04T17:37:52.191Z,1.80
2024-01-04T17:40:21.648Z,1.47
2024-01-04T17:42:49.512Z,1.80
2024-01-04T17:45:17.545Z,1.80
2024-01-04T17:47:46.119Z,1.80
2024-01-04T17:50:14.990Z,1.80
2024-01-04T17:52:42.972Z,1.80
2024-01-04T17:55:11.448Z,1.70
2024-01-04T17:57:40.757Z,1.90
2024-01-04T18:00:09.838Z,1.70
2024-01-04T18:02:37.809Z,1.80
2024-01-04T18:05:06.366Z,1.80
2024-01-04T18:07:34.924Z,1.93
2024-01-04T18:10:02.884Z,1.77
2024-01-04T18:12:30.930Z,1.70
2024-01-04T18:15:01.398Z,1.80
2024-01-04T18:17:31.742Z,1.60
2024-01-04T18:20:00.550Z,1.60
2024-01-04T18:22:29.048Z,1.50
2024-01-04T18:24:57.517Z,1.90
2024-01-04T18:27:25.834Z,1.60
2024-01-04T18:29:54.229Z,1.80
2024-01-04T18:32:23.894Z,1.90
2024-01-04T18:34:52.372Z,2.00
2024-01-04T18:37:21.295Z,1.80
2024-01-04T18:39:49.693Z,1.90
2024-01-04T18:42:18.378Z,1.70
2024-01-04T18:44:46.692Z,1.90
2024-01-04T18:47:15.002Z,2.00
2024-01-04T18:49:44.756Z,1.80
2024-01-04T18:52:13.157Z,1.90
2024-01-04T18:54:41.806Z,2.07
2024-01-04T18:57:10.778Z,2.00
2024-01-04T18:59:41.361Z,1.70
2024-01-04T19:02:09.674Z,1.80
2024-01-04T19:04:38.296Z,1.90
2024-01-04T19:07:09.786Z,1.70
2024-01-04T19:09:38.930Z,1.97
2024-01-04T19:12:08.170Z,1.70
2024-01-04T19:14:36.655Z,2.10
2024-01-04T19:17:05.325Z,1.70
2024-01-04T19:19:33.712Z,2.13
2024-01-04T19:22:02.296Z,2.20
2024-01-04T19:24:32.160Z,2.10
2024-01-04T19:27:00.529Z,2.20
2024-01-04T19:29:28.898Z,2.10
2024-01-04T19:31:57.945Z,2.10
2024-01-04T19:34:26.537Z,2.20
2024-01-04T19:36:55.008Z,2.10
2024-01-04T19:39:23.714Z,2.00
2024-01-04T19:41:54.361Z,2.20
2024-01-04T19:44:22.706Z,2.00
2024-01-04T19:46:51.261Z,1.70
2024-01-04T19:49:21.989Z,2.10
2024-01-04T19:51:50.416Z,2.20
2024-01-04T19:54:18.760Z,2.20
2024-01-04T19:56:47.278Z,2.00
2024-01-04T19:59:16.882Z,1.80
2024-01-04T20:01:47.260Z,2.20
2024-01-04T20:04:17.027Z,2.13
2024-01-04T20:06:47.093Z,2.20
2024-01-04T20:09:15.448Z,1.80
2024-01-04T20:11:46.050Z,1.80
2024-01-04T20:14:14.412Z,2.10
2024-01-04T20:16:44.311Z,2.10
2024-01-04T20:19:14.026Z,2.20
2024-01-04T20:21:42.912Z,2.10
2024-01-04T20:24:11.249Z,2.20
2024-01-04T20:26:40.052Z,2.03
2024-01-04T20:29:08.663Z,2.00
2024-01-04T20:31:37.061Z,2.00
2024-01-04T20:34:07.019Z,2.10
2024-01-04T20:36:35.588Z,2.10
2024-01-04T20:39:04.043Z,2.10
2024-01-04T20:41:32.658Z,2.00
2024-01-04T20:44:00.921Z,1.80
2024-01-04T20:46:29.497Z,2.10
2024-01-04T20:48:58.225Z,2.10
2024-01-04T20:51:28.211Z,2.20
2024-01-04T20:53:56.636Z,1.87
2024-01-04T20:56:25.175Z,2.20
2024-01-04T20:58:53.548Z,2.10
2024-01-04T21:01:22.017Z,2.30
2024-01-04T21:03:50.573Z,2.00
2024-01-04T21:06:19.015Z,2.10
2024-01-04T21:08:48.806Z,2.30
2024-01-04T21:11:17.133Z,2.20
2024-01-04T21:13:45.466Z,2.20
2024-01-04T21:16:13.901Z,1.80
2024-01-04T21:18:42.347Z,2.00
2024-01-04T21:21:10.735Z,2.10
2024-01-04T21:23:39.724Z,2.10
2024-01-04T21:26:09.864Z,2.10
2024-01-04T21:28:38.243Z,1.90
2024-01-04T21:31:06.977Z,1.80
2024-01-04T21:33:36.275Z,2.00
2024-01-04T21:36:04.727Z,2.20
2024-01-04T21:38:33.061Z,2.10
2024-01-04T21:41:01.501Z,2.10
2024-01-04T21:43:31.153Z,2.00
2024-01-04T21:46:01.322Z,2.10
2024-01-04T21:48:30.024Z,2.20
2024-01-04T21:50:58.615Z,2.00
2024-01-04T21:53:27.700Z,2.10
2024-01-04T21:55:56.962Z,1.80
2024-01-04T21:58:27.396Z,2.07
2024-01-04T22:00:57.150Z,2.10
2024-01-04T22:03:26.114Z,2.10
2024-01-04T22:05:54.516Z,2.00
2024-01-04T22:08:22.887Z,2.00
2024-01-04T22:10:51.141Z,1.90
2024-01-04T22:13:19.661Z,2.10
2024-01-04T22:15:47.982Z,2.03
2024-01-04T22:18:17.923Z,2.03
2024-01-04T22:20:46.298Z,2.00
2024-01-04T22:23:14.605Z,1.80
2024-01-04T22:25:43.364Z,2.00
2024-01-04T22:28:11.680Z,1.90
2024-01-04T22:30:40.074Z,1.90
2024-01-04T22:33:08.591Z,2.10
2024-01-04T22:35:38.469Z,2.10
2024-01-04T22:38:06.778Z,2.00
2024-01-04T22:40:35.143Z,2.00
2024-01-04T22:43:03.423Z,2.10
2024-01-04T22:45:31.825Z,1.80
2024-01-04T22:48:01.125Z,1.70
2024-01-04T22:50:29.577Z,1.73
2024-01-04T22:53:00.146Z,2.00
2024-01-04T22:55:28.665Z,2.10
2024-01-04T22:57:56.958Z,1.70
2024-01-04T23:00:25.761Z,1.80
2024-01-04T23:02:55.689Z,2.00
2024-01-04T23:05:24.008Z,1.60
2024-01-04T23:07:52.327Z,2.10
2024-01-04T23:10:22.100Z,1.80
2024-01-04T23:12:50.407Z,2.10
2024-01-04T23:15:18.851Z,1.70
2024-01-04T23:17:48.154Z,1.90
2024-01-04T23:20:16.593Z,1.90
2024-01-04T23:22:45.271Z,1.80
2024-01-04T23:25:13.712Z,1.70
2024-01-04T23:27:43.369Z,2.00
2024-01-04T23:30:12.509Z,2.07
2024-01-04T23:32:41.000Z,2.10
2024-01-04T23:35:10.173Z,1.90
2024-01-04T23:37:38.520Z,2.00
2024-01-04T23:40:07.669Z,1.77
2024-01-04T23:42:36.046Z,2.10
2024-01-04T23:45:06.113Z,1.70
2024-01-04T23:47:34.569Z,2.00
2024-01-04T23:50:03.224Z,1.90
2024-01-04T23:52:31.648Z,2.00
2024-01-04T23:55:00.369Z,2.00
2024-01-04T23:57:28.748Z,2.07
2024-01-04T23:59:57.268Z,1.70
